createdAt,value
2019-05-07T00:01:57.565Z,21.90
2019-05-07T00:04:27.087Z,27.83
2019-05-07T00:06:56.676Z,24.87
2019-05-07T00:09:26.465Z,20.70
2019-05-07T00:11:56.016Z,22.23
2019-05-07T00:14:25.544Z,21.03
2019-05-07T00:16:55.092Z,17.00
2019-05-07T00:19:24.627Z,18.63
2019-05-07T00:21:54.181Z,17.10
2019-05-07T00:24:23.704Z,22.73
2019-05-07T00:26:53.428Z,16.53
2019-05-07T00:29:23.067Z,15.77
2019-05-07T00:31:52.700Z,15.70
2019-05-07T00:34:24.113Z,14.40
2019-05-07T00:36:55.376Z,11.17
2019-05-07T00:39:26.808Z,11.40
2019-05-07T00:41:58.213Z,14.97
2019-05-07T00:44:28.311Z,12.43
2019-05-07T00:46:57.864Z,14.93
2019-05-07T00:49:28.660Z,12.57
2019-05-07T00:51:58.200Z,12.60
2019-05-07T00:54:27.730Z,21.53
2019-05-07T00:56:57.272Z,16.53
2019-05-07T00:59:26.796Z,16.27
2019-05-07T01:01:56.452Z,18.30
2019-05-07T01:04:26.164Z,17.30
2019-05-07T01:06:55.687Z,14.13
2019-05-07T01:09:25.473Z,13.50
2019-05-07T01:11:55.280Z,14.43
2019-05-07T01:14:24.815Z,17.77
2019-05-07T01:16:54.496Z,18.97
2019-05-07T01:19:24.076Z,15.77
2019-05-07T01:21:53.613Z,20.60
2019-05-07T01:24:23.480Z,20.10
2019-05-07T01:26:53.250Z,19.73
2019-05-07T01:29:23.312Z,23.23
2019-05-07T01:32:00.468Z,27.77
2019-05-07T01:34:32.254Z,26.90
2019-05-07T01:37:02.763Z,25.00
2019-05-07T01:39:32.741Z,25.50
2019-05-07T01:42:02.731Z,25.73
2019-05-07T01:44:32.681Z,24.37
2019-05-07T01:47:02.650Z,28.40
2019-05-07T01:49:32.955Z,27.93
2019-05-07T01:52:02.873Z,24.43
2019-05-07T01:54:33.327Z,27.17
2019-05-07T01:57:03.320Z,24.00
2019-05-07T01:59:32.861Z,26.43
2019-05-07T02:02:22.706Z,28.90
2019-05-07T02:04:56.569Z,24.10
2019-05-07T02:07:33.945Z,22.10
2019-05-07T02:10:05.980Z,21.27
2019-05-07T02:12:37.139Z,20.97
2019-05-07T02:15:07.804Z,25.27
2019-05-07T02:17:38.007Z,23.17
2019-05-07T02:20:09.081Z,22.00
2019-05-07T02:22:38.790Z,20.67
2019-05-07T02:25:08.400Z,23.97
2019-05-07T02:27:38.015Z,22.20
2019-05-07T02:30:07.717Z,20.90
2019-05-07T02:32:37.349Z,20.47
2019-05-07T02:35:07.389Z,24.23
2019-05-07T02:37:48.309Z,22.60
2019-05-07T02:40:23.808Z,20.50
2019-05-07T02:42:54.091Z,19.03
2019-05-07T02:45:25.646Z,24.10
2019-05-07T02:47:55.344Z,18.13
2019-05-07T02:50:35.353Z,23.90
2019-05-07T02:53:13.346Z,23.63
2019-05-07T02:55:45.486Z,24.57
2019-05-07T02:58:15.321Z,22.47
2019-05-07T03:00:45.048Z,24.70
2019-05-07T03:03:14.674Z,23.70
2019-05-07T03:05:44.568Z,21.80
2019-05-07T03:08:14.407Z,19.50
2019-05-07T03:10:44.122Z,26.40
2019-05-07T03:13:14.087Z,19.67
2019-05-07T03:15:43.967Z,23.13
2019-05-07T03:18:18.347Z,19.57
2019-05-07T03:20:49.604Z,21.23
2019-05-07T03:23:22.828Z,19.30
2019-05-07T03:26:13.393Z,21.90
2019-05-07T03:28:48.836Z,19.60
2019-05-07T03:31:36.900Z,24.03
2019-05-07T03:34:08.333Z,19.77
2019-05-07T03:36:39.719Z,23.00
2019-05-07T03:39:09.420Z,18.27
2019-05-07T03:41:39.177Z,18.60
2019-05-07T03:44:13.336Z,16.50
2019-05-07T03:46:56.777Z,22.20
2019-05-07T03:49:34.254Z,18.37
2019-05-07T03:52:04.253Z,19.60
2019-05-07T03:54:34.456Z,20.13
2019-05-07T03:57:10.754Z,21.17
2019-05-07T03:59:36.045Z,20.30
2019-05-07T04:02:06.045Z,19.47
2019-05-07T04:04:35.784Z,20.13
2019-05-07T04:07:05.481Z,21.07
2019-05-07T04:09:35.237Z,24.70
2019-05-07T04:12:05.124Z,23.03
2019-05-07T04:14:34.901Z,24.30
2019-05-07T04:17:16.700Z,32.80
2019-05-07T04:19:36.191Z,27.20
2019-05-07T04:22:05.743Z,27.50
2019-05-07T04:24:48.845Z,28.60
2019-05-07T04:27:23.842Z,26.57
2019-05-07T04:29:53.656Z,29.50
2019-05-07T04:32:24.836Z,31.73
2019-05-07T04:34:56.011Z,30.07
2019-05-07T04:37:25.649Z,31.43
2019-05-07T04:39:55.199Z,34.83
2019-05-07T04:42:24.987Z,30.20
2019-05-07T04:44:54.600Z,28.50
2019-05-07T04:47:41.249Z,27.63
2019-05-07T04:49:55.645Z,31.60
2019-05-07T04:52:33.727Z,41.17
2019-05-07T04:55:05.780Z,27.57
2019-05-07T04:57:36.288Z,19.73
2019-05-07T05:00:08.426Z,16.77
2019-05-07T05:02:43.541Z,13.40
2019-05-07T05:05:14.312Z,13.20
2019-05-07T05:07:43.917Z,13.80
2019-05-07T05:10:13.704Z,11.63
2019-05-07T05:12:43.413Z,12.10
2019-05-07T05:15:13.776Z,11.60
2019-05-07T05:17:50.397Z,10.90
2019-05-07T05:20:16.130Z,12.37
2019-05-07T05:23:02.523Z,11.40
2019-05-07T05:25:43.175Z,11.70
2019-05-07T05:28:13.465Z,11.33
2019-05-07T05:30:52.783Z,9.97
2019-05-07T05:33:23.543Z,12.73
2019-05-07T05:35:53.402Z,12.87
2019-05-07T05:38:23.361Z,12.87
2019-05-07T05:40:53.088Z,10.20
2019-05-07T05:43:24.267Z,11.80
2019-05-07T05:45:55.625Z,11.20
2019-05-07T05:48:25.163Z,11.47
2019-05-07T05:51:12.584Z,10.93
2019-05-07T05:53:52.600Z,11.27
2019-05-07T05:56:33.312Z,11.43
2019-05-07T05:59:12.080Z,9.73
2019-05-07T06:01:52.891Z,10.87
2019-05-07T06:04:29.920Z,11.83
2019-05-07T06:07:16.232Z,11.47
2019-05-07T06:10:04.325Z,10.00
2019-05-07T06:12:38.156Z,8.77
2019-05-07T06:15:13.764Z,9.60
2019-05-07T06:18:02.773Z,9.40
2019-05-07T06:20:40.040Z,9.73
2019-05-07T06:23:17.298Z,10.10
2019-05-07T06:25:48.118Z,9.43
2019-05-07T06:28:17.639Z,10.33
2019-05-07T06:30:47.155Z,9.90
2019-05-07T06:33:17.120Z,9.90
2019-05-07T06:35:46.746Z,11.37
2019-05-07T06:38:16.576Z,10.07
2019-05-07T06:41:04.617Z,9.40
2019-05-07T06:43:42.225Z,9.57
2019-05-07T06:46:12.559Z,9.47
2019-05-07T06:48:45.969Z,9.73
2019-05-07T06:51:13.464Z,8.43
2019-05-07T06:53:42.995Z,10.07
2019-05-07T06:56:12.532Z,12.47
2019-05-07T06:58:43.704Z,8.27
2019-05-07T07:01:14.883Z,8.03
2019-05-07T07:04:02.810Z,9.37
2019-05-07T07:06:34.076Z,8.40
2019-05-07T07:09:09.617Z,8.67
2019-05-07T07:11:46.882Z,9.10
2019-05-07T07:14:16.548Z,8.67
2019-05-07T07:16:46.161Z,10.23
2019-05-07T07:19:15.689Z,8.50
2019-05-07T07:21:45.225Z,8.00
2019-05-07T07:24:14.919Z,7.87
2019-05-07T07:26:44.456Z,7.10
2019-05-07T07:29:15.623Z,6.80
2019-05-07T07:31:50.064Z,5.20
2019-05-07T07:34:19.662Z,4.60
2019-05-07T07:37:05.522Z,5.90
2019-05-07T07:39:23.540Z,4.27
2019-05-07T07:41:54.720Z,5.67
2019-05-07T07:44:24.181Z,6.20
2019-05-07T07:46:54.029Z,4.40
2019-05-07T07:49:23.553Z,6.27
2019-05-07T07:51:53.899Z,5.47
2019-05-07T07:54:23.716Z,5.97
2019-05-07T07:56:56.616Z,4.00
2019-05-07T07:59:27.860Z,5.90
2019-05-07T08:02:53.064Z,6.23
2019-05-07T08:05:22.588Z,5.20
2019-05-07T08:07:52.949Z,4.90
2019-05-07T08:10:22.708Z,4.17
2019-05-07T08:12:52.626Z,3.77
2019-05-07T08:15:24.615Z,4.43
2019-05-07T08:17:53.956Z,4.20
2019-05-07T08:20:24.924Z,4.23
2019-05-07T08:22:54.905Z,4.03
2019-05-07T08:25:26.185Z,3.67
2019-05-07T08:27:58.148Z,6.13
2019-05-07T08:30:28.838Z,3.23
2019-05-07T08:33:02.012Z,4.07
2019-05-07T08:35:33.039Z,2.53
2019-05-07T08:38:02.726Z,3.37
2019-05-07T08:40:32.699Z,6.03
2019-05-07T08:43:03.376Z,3.13
2019-05-07T08:45:52.494Z,6.80
2019-05-07T08:48:33.152Z,8.00
2019-05-07T08:51:02.809Z,6.30
2019-05-07T08:53:32.866Z,5.07
2019-05-07T08:56:03.212Z,5.43
2019-05-07T08:58:33.011Z,4.33
2019-05-07T09:01:03.157Z,3.43
2019-05-07T09:03:34.540Z,5.10
2019-05-07T09:06:04.068Z,7.80
2019-05-07T09:08:33.613Z,5.70
2019-05-07T09:11:03.164Z,2.63
2019-05-07T09:13:33.282Z,3.33
2019-05-07T09:16:03.545Z,5.97
2019-05-07T09:18:33.141Z,2.50
2019-05-07T09:21:02.663Z,4.13
2019-05-07T09:23:32.506Z,3.20
2019-05-07T09:26:02.757Z,2.23
2019-05-07T09:28:34.253Z,2.80
2019-05-07T09:31:08.672Z,2.60
2019-05-07T09:33:42.876Z,3.40
2019-05-07T09:36:14.184Z,3.40
2019-05-07T09:38:56.157Z,5.23
2019-05-07T09:41:27.959Z,2.83
2019-05-07T09:43:58.226Z,5.00
2019-05-07T09:46:27.933Z,3.23
2019-05-07T09:48:57.395Z,5.93
2019-05-07T09:51:27.072Z,2.70
2019-05-07T09:53:56.540Z,3.60
2019-05-07T09:56:26.288Z,3.97
2019-05-07T09:58:55.812Z,3.10
2019-05-07T10:01:25.573Z,3.77
2019-05-07T10:03:55.494Z,5.30
2019-05-07T10:06:25.019Z,7.63
2019-05-07T10:08:54.714Z,6.63
2019-05-07T10:11:40.952Z,4.10
2019-05-07T10:14:13.243Z,7.83
2019-05-07T10:16:53.714Z,5.43
2019-05-07T10:19:23.393Z,7.33
2019-05-07T10:21:53.104Z,2.30
2019-05-07T10:24:22.692Z,4.03
2019-05-07T10:26:53.069Z,4.27
2019-05-07T10:29:23.020Z,3.63
2019-05-07T10:31:52.834Z,3.93
2019-05-07T10:34:22.886Z,16.57
2019-05-07T10:36:52.644Z,10.70
2019-05-07T10:39:22.255Z,6.73
2019-05-07T10:41:51.714Z,9.60
2019-05-07T10:44:23.042Z,6.93
2019-05-07T10:47:12.104Z,9.03
2019-05-07T10:49:49.519Z,10.77
2019-05-07T10:52:19.193Z,22.00
2019-05-07T10:54:57.576Z,16.93
2019-05-07T10:57:21.938Z,3.53
2019-05-07T10:59:52.359Z,8.20
2019-05-07T11:02:23.967Z,8.73
2019-05-07T11:04:53.524Z,3.13
2019-05-07T11:07:23.548Z,3.70
2019-05-07T11:09:53.084Z,7.17
2019-05-07T11:12:23.013Z,2.93
2019-05-07T11:14:52.944Z,7.20
2019-05-07T11:17:26.760Z,4.90
2019-05-07T11:19:56.296Z,6.00
2019-05-07T11:22:25.821Z,3.00
2019-05-07T11:24:55.360Z,8.80
2019-05-07T11:27:24.885Z,2.87
2019-05-07T11:29:54.424Z,2.30
2019-05-07T11:32:23.949Z,3.00
2019-05-07T11:34:56.319Z,2.40
2019-05-07T11:37:24.721Z,3.00
2019-05-07T11:39:54.279Z,2.67
2019-05-07T11:42:25.784Z,2.23
2019-05-07T11:44:55.606Z,3.73
2019-05-07T11:47:26.944Z,2.93
2019-05-07T11:50:14.749Z,3.73
2019-05-07T11:52:52.631Z,5.17
2019-05-07T11:55:22.520Z,3.80
2019-05-07T11:57:53.435Z,4.27
2019-05-07T12:00:33.980Z,2.93
2019-05-07T12:03:03.608Z,2.80
2019-05-07T12:05:33.396Z,2.50
2019-05-07T12:08:03.512Z,5.63
2019-05-07T12:10:33.252Z,2.53
2019-05-07T12:13:02.786Z,2.90
2019-05-07T12:15:32.665Z,3.33
2019-05-07T12:18:03.002Z,4.63
2019-05-07T12:20:32.822Z,9.00
2019-05-07T12:23:02.969Z,3.93
2019-05-07T12:25:32.745Z,4.40
2019-05-07T12:28:02.723Z,3.97
2019-05-07T12:30:43.175Z,16.93
2019-05-07T12:33:19.980Z,3.37
2019-05-07T12:35:49.515Z,3.90
2019-05-07T12:38:19.048Z,2.50
2019-05-07T12:40:48.580Z,4.33
2019-05-07T12:43:18.273Z,10.07
2019-05-07T12:45:48.282Z,10.10
2019-05-07T12:48:17.732Z,5.10
2019-05-07T12:50:47.804Z,3.60
2019-05-07T12:53:35.301Z,3.30
2019-05-07T12:56:05.964Z,2.90
2019-05-07T12:58:35.732Z,5.30
2019-05-07T13:01:09.324Z,3.43
2019-05-07T13:03:49.592Z,6.07
2019-05-07T13:06:19.653Z,4.07
2019-05-07T13:08:49.564Z,6.00
2019-05-07T13:11:19.267Z,8.80
2019-05-07T13:13:48.801Z,3.27
2019-05-07T13:16:18.454Z,11.17
2019-05-07T13:18:48.055Z,5.83
2019-05-07T13:21:17.616Z,4.20
2019-05-07T13:23:47.304Z,3.93
2019-05-07T13:26:16.775Z,21.03
2019-05-07T13:28:46.307Z,5.43
2019-05-07T13:31:19.295Z,5.70
2019-05-07T13:33:52.330Z,4.90
2019-05-07T13:36:22.776Z,3.17
2019-05-07T13:38:54.241Z,2.27
2019-05-07T13:41:31.162Z,2.60
2019-05-07T13:44:05.091Z,2.83
2019-05-07T13:46:36.875Z,2.80
2019-05-07T13:49:06.823Z,2.40
2019-05-07T13:51:36.796Z,4.80
2019-05-07T13:54:06.755Z,2.47
2019-05-07T13:56:36.700Z,2.73
2019-05-07T13:59:06.343Z,7.10
2019-05-07T14:01:46.647Z,2.83
2019-05-07T14:04:16.570Z,4.10
2019-05-07T14:06:46.333Z,2.37
2019-05-07T14:09:17.767Z,2.60
2019-05-07T14:11:47.560Z,8.83
2019-05-07T14:14:17.360Z,8.20
2019-05-07T14:16:47.298Z,3.70
2019-05-07T14:19:17.086Z,4.30
2019-05-07T14:21:46.844Z,2.27
2019-05-07T14:24:17.025Z,2.57
2019-05-07T14:26:46.482Z,1.83
2019-05-07T14:29:16.011Z,2.80
2019-05-07T14:31:47.245Z,5.83
2019-05-07T14:34:24.401Z,3.50
2019-05-07T14:36:55.565Z,4.27
2019-05-07T14:39:25.107Z,3.07
2019-05-07T14:41:56.272Z,2.90
2019-05-07T14:44:27.579Z,4.50
2019-05-07T14:46:57.443Z,2.23
2019-05-07T14:49:27.280Z,2.27
2019-05-07T14:51:56.737Z,2.07
2019-05-07T14:54:26.456Z,2.30
2019-05-07T14:56:56.380Z,3.30
2019-05-07T14:59:26.023Z,2.60
2019-05-07T15:01:55.558Z,2.10
2019-05-07T15:04:25.251Z,2.77
2019-05-07T15:06:54.781Z,2.50
2019-05-07T15:09:24.392Z,3.17
2019-05-07T15:11:54.032Z,3.17
2019-05-07T15:14:23.576Z,2.93
2019-05-07T15:16:54.924Z,2.53
2019-05-07T15:19:24.606Z,3.90
2019-05-07T15:21:58.567Z,2.50
2019-05-07T15:24:28.228Z,3.37
2019-05-07T15:26:58.264Z,2.47
2019-05-07T15:29:27.799Z,2.20
2019-05-07T15:31:59.294Z,2.83
2019-05-07T15:34:28.840Z,4.10
2019-05-07T15:36:58.584Z,3.20
2019-05-07T15:39:28.221Z,3.00
2019-05-07T15:41:57.853Z,3.10
2019-05-07T15:44:27.539Z,2.97
2019-05-07T15:46:58.885Z,3.47
2019-05-07T15:49:28.852Z,4.43
2019-05-07T15:52:01.763Z,2.97
2019-05-07T15:54:32.563Z,3.53
2019-05-07T15:57:03.988Z,2.87
2019-05-07T15:59:33.558Z,3.00
2019-05-07T16:02:07.691Z,3.40
2019-05-07T16:04:37.804Z,3.40
2019-05-07T16:07:09.260Z,2.73
2019-05-07T16:09:44.502Z,2.20
2019-05-07T16:12:15.844Z,2.80
2019-05-07T16:14:45.393Z,3.80
2019-05-07T16:17:28.592Z,3.20
2019-05-07T16:19:58.125Z,2.50
2019-05-07T16:22:29.399Z,2.30
2019-05-07T16:24:59.159Z,3.90
2019-05-07T16:27:28.684Z,3.10
2019-05-07T16:29:58.367Z,2.50
2019-05-07T16:32:27.905Z,2.80
2019-05-07T16:34:57.532Z,2.73
2019-05-07T16:37:27.107Z,3.03
2019-05-07T16:39:56.676Z,3.53
2019-05-07T16:42:26.285Z,3.27
2019-05-07T16:44:55.816Z,3.00
2019-05-07T16:47:25.339Z,3.10
2019-05-07T16:49:55.051Z,3.47
2019-05-07T16:52:25.028Z,2.50
2019-05-07T16:54:54.743Z,4.17
2019-05-07T16:57:34.768Z,3.00
2019-05-07T17:00:08.024Z,2.87
2019-05-07T17:02:42.007Z,2.60
2019-05-07T17:05:13.600Z,2.73
2019-05-07T17:07:45.068Z,3.43
2019-05-07T17:10:16.516Z,3.03
2019-05-07T17:12:46.516Z,2.87
2019-05-07T17:15:17.600Z,2.83
2019-05-07T17:17:48.779Z,2.93
2019-05-07T17:20:18.547Z,3.47
2019-05-07T17:22:48.088Z,3.40
2019-05-07T17:25:35.848Z,4.03
2019-05-07T17:28:07.642Z,3.60
2019-05-07T17:30:37.915Z,3.73
2019-05-07T17:33:07.629Z,3.40
2019-05-07T17:35:37.308Z,3.17
2019-05-07T17:38:09.838Z,3.00
2019-05-07T17:40:38.160Z,4.40
2019-05-07T17:43:07.683Z,3.53
2019-05-07T17:45:37.412Z,3.83
2019-05-07T17:48:07.339Z,4.33
2019-05-07T17:50:38.641Z,3.70
2019-05-07T17:53:08.340Z,4.10
2019-05-07T17:55:38.264Z,3.43
2019-05-07T17:58:08.537Z,3.17
2019-05-07T18:00:38.796Z,3.10
2019-05-07T18:03:10.188Z,3.30
2019-05-07T18:05:39.971Z,4.17
2019-05-07T18:08:09.427Z,4.40
2019-05-07T18:10:39.245Z,5.20
2019-05-07T18:13:08.887Z,7.80
2019-05-07T18:15:38.480Z,4.43
2019-05-07T18:18:09.670Z,4.63
2019-05-07T18:20:39.595Z,3.93
2019-05-07T18:23:11.775Z,3.43
2019-05-07T18:25:42.695Z,3.03
2019-05-07T18:28:12.628Z,3.87
2019-05-07T18:30:42.348Z,4.17
2019-05-07T18:33:13.872Z,4.50
2019-05-07T18:35:45.634Z,4.50
2019-05-07T18:38:15.240Z,4.07
2019-05-07T18:40:44.763Z,4.77
2019-05-07T18:43:14.500Z,5.00
2019-05-07T18:45:44.092Z,6.50
2019-05-07T18:48:13.556Z,4.90
2019-05-07T18:50:43.216Z,4.27
2019-05-07T18:53:12.915Z,10.93
2019-05-07T18:55:42.611Z,6.30
2019-05-07T18:58:13.395Z,8.90
2019-05-07T19:00:51.942Z,6.97
2019-05-07T19:03:21.934Z,10.27
2019-05-07T19:05:52.029Z,7.73
2019-05-07T19:08:22.888Z,7.17
2019-05-07T19:10:52.720Z,9.03
2019-05-07T19:13:22.388Z,5.30
2019-05-07T19:15:53.018Z,6.83
2019-05-07T19:18:23.375Z,6.47
2019-05-07T19:20:53.130Z,4.73
2019-05-07T19:23:22.853Z,6.67
2019-05-07T19:25:52.495Z,5.27
2019-05-07T19:28:22.586Z,6.00
2019-05-07T19:30:52.982Z,6.60
2019-05-07T19:33:26.749Z,9.70
2019-05-07T19:35:54.041Z,7.90
2019-05-07T19:38:23.572Z,4.83
2019-05-07T19:40:53.321Z,5.43
2019-05-07T19:43:22.929Z,4.93
2019-05-07T19:45:52.523Z,7.10
2019-05-07T19:48:23.105Z,3.93
2019-05-07T19:50:53.165Z,5.23
2019-05-07T19:53:23.563Z,5.27
2019-05-07T19:56:11.176Z,8.77
2019-05-07T19:58:41.920Z,8.60
2019-05-07T20:01:13.476Z,8.30
2019-05-07T20:03:43.523Z,9.33
2019-05-07T20:06:13.408Z,8.93
2019-05-07T20:08:43.886Z,9.07
2019-05-07T20:11:33.156Z,4.97
2019-05-07T20:14:02.683Z,6.97
2019-05-07T20:16:33.033Z,5.13
2019-05-07T20:19:02.868Z,4.93
2019-05-07T20:21:32.779Z,4.30
2019-05-07T20:24:02.492Z,4.87
2019-05-07T20:26:32.706Z,5.30
2019-05-07T20:29:03.145Z,4.80
2019-05-07T20:31:33.746Z,4.93
2019-05-07T20:34:03.372Z,4.70
2019-05-07T20:36:32.978Z,6.50
2019-05-07T20:39:02.497Z,4.20
2019-05-07T20:41:33.009Z,6.63
2019-05-07T20:44:03.092Z,5.50
2019-05-07T20:46:33.207Z,5.53
2019-05-07T20:49:03.151Z,5.90
2019-05-07T20:51:32.775Z,8.70
2019-05-07T20:54:10.036Z,5.97
2019-05-07T20:56:41.950Z,6.27
2019-05-07T20:59:12.501Z,5.80
2019-05-07T21:01:42.149Z,5.80
2019-05-07T21:04:12.992Z,7.10
2019-05-07T21:06:43.320Z,6.33
2019-05-07T21:09:16.153Z,7.20
2019-05-07T21:11:45.754Z,7.80
2019-05-07T21:14:15.365Z,6.87
2019-05-07T21:16:44.818Z,7.07
2019-05-07T21:19:14.268Z,7.17
2019-05-07T21:21:43.795Z,6.03
2019-05-07T21:24:13.316Z,6.53
2019-05-07T21:26:42.869Z,7.57
2019-05-07T21:29:13.758Z,7.70
2019-05-07T21:31:43.655Z,6.33
2019-05-07T21:34:13.335Z,5.50
2019-05-07T21:36:43.424Z,6.80
2019-05-07T21:39:13.362Z,6.03
2019-05-07T21:41:43.007Z,8.03
2019-05-07T21:44:12.572Z,7.20
2019-05-07T21:46:42.736Z,6.40
2019-05-07T21:49:12.592Z,7.07
2019-05-07T21:51:42.128Z,6.77
2019-05-07T21:54:13.287Z,6.93
2019-05-07T21:56:54.549Z,7.10
2019-05-07T21:59:28.911Z,6.30
2019-05-07T22:02:03.165Z,8.03
2019-05-07T22:04:32.988Z,6.13
2019-05-07T22:07:03.032Z,8.33
2019-05-07T22:09:33.085Z,7.27
2019-05-07T22:12:03.709Z,6.17
2019-05-07T22:14:33.772Z,5.50
2019-05-07T22:17:03.471Z,6.80
2019-05-07T22:19:33.796Z,6.87
2019-05-07T22:22:03.504Z,7.00
2019-05-07T22:24:33.024Z,6.33
2019-05-07T22:27:04.273Z,6.63
2019-05-07T22:29:34.013Z,8.40
2019-05-07T22:32:07.864Z,9.47
2019-05-07T22:34:54.296Z,6.83
2019-05-07T22:37:23.828Z,6.33
2019-05-07T22:39:53.349Z,7.27
2019-05-07T22:42:22.881Z,10.80
2019-05-07T22:44:52.509Z,8.47
2019-05-07T22:47:22.973Z,10.70
2019-05-07T22:49:53.703Z,7.77
2019-05-07T22:52:23.698Z,7.20
2019-05-07T22:54:53.375Z,7.60
2019-05-07T22:57:24.756Z,6.97
2019-05-07T22:59:54.384Z,8.30
2019-05-07T23:02:23.991Z,6.93
2019-05-07T23:04:53.580Z,8.17
2019-05-07T23:07:23.389Z,7.10
2019-05-07T23:12:32.722Z,7.90
2019-05-07T23:15:02.924Z,6.83
2019-05-07T23:17:35.646Z,9.03
2019-05-07T23:20:06.681Z,9.50
2019-05-07T23:22:36.226Z,7.47
2019-05-07T23:25:06.412Z,8.03
2019-05-07T23:27:36.120Z,6.80
2019-05-07T23:30:06.580Z,7.17
2019-05-07T23:32:36.140Z,9.90
2019-05-07T23:35:05.732Z,8.30
2019-05-07T23:37:35.400Z,8.00
2019-05-07T23:40:14.596Z,9.50
2019-05-07T23:42:45.962Z,9.20
2019-05-07T23:45:15.648Z,7.70
2019-05-07T23:47:45.179Z,9.07
2019-05-07T23:50:14.710Z,10.80
2019-05-07T23:52:44.235Z,8.37
2019-05-07T23:55:13.996Z,7.90
2019-05-07T23:57:43.592Z,7.67
